createdAt,value
2022-11-29T00:01:26.800Z,20.92
2022-11-29T00:03:54.962Z,18.98
2022-11-29T00:06:24.436Z,19.15
2022-11-29T00:08:51.088Z,20.60
2022-11-29T00:11:37.777Z,19.73
2022-11-29T00:14:06.050Z,20.30
2022-11-29T00:16:32.718Z,20.55
2022-11-29T00:18:59.671Z,19.73
2022-11-29T00:21:26.333Z,19.77
2022-11-29T00:23:53.113Z,19.23
2022-11-29T00:26:19.821Z,19.25
2022-11-29T00:28:46.447Z,18.55
2022-11-29T00:31:15.904Z,18.38
2022-11-29T00:33:42.825Z,19.77
2022-11-29T00:36:09.895Z,19.02
2022-11-29T00:38:36.921Z,19.33
2022-11-29T00:41:03.679Z,20.80
2022-11-29T00:43:30.370Z,19.77
2022-11-29T00:45:57.472Z,20.48
2022-11-29T00:48:24.505Z,19.80
2022-11-29T00:50:51.214Z,21.48
2022-11-29T00:53:17.840Z,19.80
2022-11-29T00:55:45.298Z,19.27
2022-11-29T00:58:11.911Z,20.83
2022-11-29T01:00:38.654Z,20.05
2022-11-29T01:03:05.279Z,20.10
2022-11-29T01:05:32.630Z,20.77
2022-11-29T01:07:59.633Z,19.45
2022-11-29T01:10:27.550Z,20.17
2022-11-29T01:12:55.269Z,19.42
2022-11-29T01:15:21.948Z,21.23
2022-11-29T01:17:49.485Z,18.42
2022-11-29T01:20:16.624Z,20.13
2022-11-29T01:22:43.466Z,18.83
2022-11-29T01:25:11.972Z,19.67
2022-11-29T01:27:38.736Z,19.48
2022-11-29T01:30:07.145Z,20.13
2022-11-29T01:32:34.556Z,20.75
2022-11-29T01:35:01.311Z,19.02
2022-11-29T01:37:31.795Z,19.98
2022-11-29T01:39:58.457Z,18.50
2022-11-29T01:42:25.096Z,19.48
2022-11-29T01:45:01.793Z,20.17
2022-11-29T01:47:29.264Z,19.00
2022-11-29T01:49:56.161Z,20.15
2022-11-29T01:52:27.561Z,18.73
2022-11-29T01:54:58.546Z,19.38
2022-11-29T01:57:26.567Z,18.10
2022-11-29T02:00:00.658Z,18.88
2022-11-29T02:02:32.678Z,20.33
2022-11-29T02:05:02.047Z,20.35
2022-11-29T02:07:28.742Z,20.27
2022-11-29T02:09:55.370Z,19.02
2022-11-29T02:12:38.300Z,19.95
2022-11-29T02:15:09.974Z,20.75
2022-11-29T02:17:48.961Z,19.30
2022-11-29T02:20:28.607Z,20.65
2022-11-29T02:23:19.037Z,19.48
2022-11-29T02:25:59.049Z,20.27
2022-11-29T02:28:55.510Z,19.33
2022-11-29T02:31:30.442Z,20.50
2022-11-29T02:34:28.518Z,19.08
2022-11-29T02:37:15.115Z,20.48
2022-11-29T02:40:09.844Z,20.58
2022-11-29T02:42:54.358Z,20.35
2022-11-29T02:45:53.544Z,20.83
2022-11-29T02:48:20.221Z,19.08
2022-11-29T02:50:57.994Z,19.58
2022-11-29T02:53:39.979Z,20.58
2022-11-29T02:56:22.945Z,19.85
2022-11-29T02:58:59.874Z,20.10
2022-11-29T03:01:39.921Z,19.73
2022-11-29T03:04:21.885Z,19.27
2022-11-29T03:07:15.562Z,20.58
2022-11-29T03:09:56.290Z,20.50
2022-11-29T03:12:30.420Z,19.95
2022-11-29T03:15:16.971Z,18.38
2022-11-29T03:17:55.501Z,21.20
2022-11-29T03:20:28.014Z,19.70
2022-11-29T03:23:15.242Z,20.38
2022-11-29T03:25:50.171Z,21.17
2022-11-29T03:28:47.358Z,21.50
2022-11-29T03:31:34.134Z,21.75
2022-11-29T03:34:21.650Z,23.25
2022-11-29T03:37:03.669Z,22.00
2022-11-29T03:39:45.650Z,21.73
2022-11-29T03:42:19.862Z,22.55
2022-11-29T03:44:57.317Z,22.05
2022-11-29T03:47:31.261Z,21.23
2022-11-29T03:50:01.582Z,21.10
2022-11-29T03:52:33.398Z,22.25
2022-11-29T03:55:01.020Z,22.33
2022-11-29T03:57:38.034Z,23.30
2022-11-29T04:00:11.701Z,23.27
2022-11-29T04:02:53.787Z,22.65
2022-11-29T04:05:28.261Z,23.27
2022-11-29T04:08:25.360Z,22.85
2022-11-29T04:11:27.227Z,23.45
2022-11-29T04:14:20.874Z,23.15
2022-11-29T04:17:20.055Z,22.83
2022-11-29T04:20:03.121Z,22.90
2022-11-29T04:22:56.465Z,21.98
2022-11-29T04:25:48.862Z,21.92
2022-11-29T04:28:47.264Z,22.13
2022-11-29T04:34:28.571Z,21.58
2022-11-29T04:37:27.209Z,22.15
2022-11-29T04:40:09.172Z,22.58
2022-11-29T04:42:42.664Z,21.20
2022-11-29T04:45:39.739Z,22.33
2022-11-29T04:48:36.867Z,21.67
2022-11-29T04:51:25.118Z,22.25
2022-11-29T04:54:12.620Z,22.75
2022-11-29T04:56:45.170Z,22.17
2022-11-29T04:59:25.447Z,22.65
2022-11-29T05:02:07.226Z,22.45
2022-11-29T05:04:53.288Z,21.42
2022-11-29T05:07:35.237Z,23.55
2022-11-29T05:10:17.234Z,22.27
2022-11-29T05:13:14.738Z,23.23
2022-11-29T05:16:00.109Z,22.98
2022-11-29T05:18:36.317Z,21.58
2022-11-29T05:21:32.445Z,22.73
2022-11-29T05:24:34.254Z,22.65
2022-11-29T05:27:18.190Z,22.75
2022-11-29T05:30:01.311Z,21.90
2022-11-29T05:32:38.477Z,21.77
2022-11-29T05:35:35.731Z,22.48
2022-11-29T05:38:29.608Z,26.27
2022-11-29T05:41:12.599Z,23.67
2022-11-29T05:43:55.427Z,23.50
2022-11-29T05:46:23.090Z,23.42
2022-11-29T05:49:00.373Z,24.20
2022-11-29T05:51:29.143Z,21.90
2022-11-29T05:54:11.932Z,23.85
2022-11-29T05:56:54.845Z,24.83
2022-11-29T05:59:26.513Z,24.05
2022-11-29T06:01:53.548Z,23.10
2022-11-29T06:04:29.235Z,22.98
2022-11-29T06:06:56.830Z,23.42
2022-11-29T06:09:27.893Z,25.55
2022-11-29T06:12:02.530Z,24.20
2022-11-29T06:15:00.903Z,24.25
2022-11-29T06:17:58.039Z,25.70
2022-11-29T06:20:43.617Z,22.85
2022-11-29T06:23:11.248Z,24.45
2022-11-29T06:26:04.043Z,24.55
2022-11-29T06:28:46.250Z,24.00
2022-11-29T06:31:26.281Z,21.70
2022-11-29T06:34:09.868Z,24.23
2022-11-29T06:36:50.802Z,24.35
2022-11-29T06:39:17.898Z,23.88
2022-11-29T06:41:44.761Z,22.40
2022-11-29T06:44:11.641Z,24.63
2022-11-29T06:47:08.958Z,25.15
2022-11-29T06:52:03.039Z,23.98
2022-11-29T06:54:45.401Z,25.55
2022-11-29T06:57:26.619Z,27.02
2022-11-29T07:00:16.437Z,25.80
2022-11-29T07:03:14.562Z,30.95
2022-11-29T07:05:41.618Z,27.90
2022-11-29T07:08:23.414Z,26.15
2022-11-29T07:10:54.055Z,27.27
2022-11-29T07:13:21.596Z,27.13
2022-11-29T07:15:55.765Z,29.80
2022-11-29T07:18:37.553Z,25.98
2022-11-29T07:21:10.837Z,28.23
2022-11-29T07:23:49.683Z,26.63
2022-11-29T07:26:29.471Z,28.02
2022-11-29T07:29:05.315Z,30.05
2022-11-29T07:31:48.123Z,36.90
2022-11-29T07:34:14.708Z,33.10
2022-11-29T07:36:58.307Z,33.70
2022-11-29T07:39:49.207Z,27.40
2022-11-29T07:42:39.314Z,31.98
2022-11-29T07:45:24.656Z,28.05
2022-11-29T07:47:51.655Z,25.58
2022-11-29T07:50:18.896Z,26.08
2022-11-29T07:52:46.323Z,26.83
2022-11-29T07:55:18.962Z,26.42
2022-11-29T07:57:46.622Z,24.70
2022-11-29T08:00:14.024Z,25.02
2022-11-29T08:02:41.474Z,25.92
2022-11-29T08:05:09.192Z,25.70
2022-11-29T08:07:38.036Z,25.33
2022-11-29T08:10:06.922Z,25.73
2022-11-29T08:12:33.655Z,26.77
2022-11-29T08:15:01.536Z,26.20
2022-11-29T08:17:28.415Z,25.65
2022-11-29T08:19:55.013Z,28.75
2022-11-29T08:22:21.669Z,25.50
2022-11-29T08:24:48.511Z,25.52
2022-11-29T08:27:15.380Z,26.88
2022-11-29T08:29:41.995Z,24.50
2022-11-29T08:32:09.134Z,24.63
2022-11-29T08:34:35.747Z,23.88
2022-11-29T08:37:02.367Z,26.58
2022-11-29T08:39:28.940Z,26.00
2022-11-29T08:41:55.764Z,25.20
2022-11-29T08:44:22.639Z,25.73
2022-11-29T08:47:04.621Z,25.95
2022-11-29T08:49:31.270Z,24.48
2022-11-29T08:52:17.807Z,25.27
2022-11-29T08:54:44.911Z,25.55
2022-11-29T08:57:41.552Z,24.65
2022-11-29T08:59:58.359Z,25.65
2022-11-29T09:02:25.152Z,23.42
2022-11-29T09:04:51.831Z,24.38
2022-11-29T09:07:18.507Z,24.90
2022-11-29T09:09:45.169Z,25.90
2022-11-29T09:12:11.802Z,23.33
2022-11-29T09:14:38.455Z,24.33
2022-11-29T09:17:05.083Z,23.58
2022-11-29T09:19:32.504Z,26.38
2022-11-29T09:21:59.142Z,23.98
2022-11-29T09:24:25.817Z,25.48
2022-11-29T09:26:52.436Z,24.60
2022-11-29T09:29:19.127Z,24.63
2022-11-29T09:31:45.907Z,24.88
2022-11-29T09:34:13.963Z,24.83
2022-11-29T09:36:40.920Z,23.83
2022-11-29T09:39:12.625Z,23.98
2022-11-29T09:41:48.992Z,26.42
2022-11-29T09:47:35.908Z,23.15
2022-11-29T09:50:03.912Z,23.70
2022-11-29T09:52:46.624Z,24.35
2022-11-29T09:55:29.429Z,23.77
2022-11-29T09:57:58.383Z,23.02
2022-11-29T10:00:26.116Z,24.63
2022-11-29T10:03:00.741Z,23.58
2022-11-29T10:05:47.422Z,25.05
2022-11-29T10:08:24.033Z,22.55
2022-11-29T10:10:55.685Z,23.98
2022-11-29T10:13:28.759Z,23.60
2022-11-29T10:16:04.762Z,22.83
2022-11-29T10:18:38.474Z,23.63
2022-11-29T10:21:12.768Z,24.52
2022-11-29T10:23:46.484Z,24.05
2022-11-29T10:26:13.484Z,23.40
2022-11-29T10:28:44.988Z,24.90
2022-11-29T10:31:28.659Z,24.20
2022-11-29T10:33:59.187Z,22.95
2022-11-29T10:36:31.857Z,29.13
2022-11-29T10:39:02.988Z,25.17
2022-11-29T10:41:29.740Z,25.75
2022-11-29T10:43:59.121Z,26.55
2022-11-29T10:46:31.477Z,23.25
2022-11-29T10:49:01.101Z,24.63
2022-11-29T10:51:28.843Z,24.30
2022-11-29T10:53:56.165Z,23.65
2022-11-29T10:56:29.499Z,22.50
2022-11-29T10:59:06.190Z,21.65
2022-11-29T11:01:38.261Z,22.23
2022-11-29T11:04:09.954Z,20.90
2022-11-29T11:06:43.951Z,22.08
2022-11-29T11:09:30.089Z,22.40
2022-11-29T11:11:59.498Z,20.10
2022-11-29T11:14:30.034Z,21.38
2022-11-29T11:17:13.717Z,21.38
2022-11-29T11:19:40.465Z,20.23
2022-11-29T11:22:07.261Z,22.77
2022-11-29T11:24:40.157Z,20.85
2022-11-29T11:27:07.162Z,21.05
2022-11-29T11:29:39.783Z,19.52
2022-11-29T11:32:17.082Z,19.05
2022-11-29T11:34:59.166Z,20.73
2022-11-29T11:37:33.186Z,20.38
2022-11-29T11:40:18.948Z,19.80
2022-11-29T11:42:46.506Z,19.67
2022-11-29T11:45:13.083Z,20.60
2022-11-29T11:47:46.722Z,19.13
2022-11-29T11:50:16.652Z,20.20
2022-11-29T11:52:52.457Z,22.08
2022-11-29T11:55:30.666Z,21.58
2022-11-29T11:58:10.248Z,20.33
2022-11-29T12:01:09.410Z,20.85
2022-11-29T12:03:59.162Z,20.98
2022-11-29T12:06:31.489Z,21.23
2022-11-29T12:09:09.967Z,20.40
2022-11-29T12:11:47.920Z,19.58
2022-11-29T12:14:24.115Z,20.33
2022-11-29T12:17:00.214Z,19.35
2022-11-29T12:19:35.220Z,20.45
2022-11-29T12:22:08.648Z,20.02
2022-11-29T12:24:43.498Z,22.42
2022-11-29T12:27:14.958Z,20.67
2022-11-29T12:29:41.661Z,21.52
2022-11-29T12:32:32.520Z,22.15
2022-11-29T12:35:00.185Z,19.05
2022-11-29T12:37:40.346Z,20.92
2022-11-29T12:40:17.745Z,19.98
2022-11-29T12:43:03.391Z,21.48
2022-11-29T12:45:40.893Z,21.00
2022-11-29T12:48:27.427Z,20.73
2022-11-29T12:51:05.801Z,21.25
2022-11-29T12:54:07.715Z,20.45
2022-11-29T12:56:38.537Z,20.27
2022-11-29T12:59:33.366Z,19.77
2022-11-29T13:02:12.779Z,25.95
2022-11-29T13:04:45.991Z,32.83
2022-11-29T13:07:28.176Z,23.08
2022-11-29T13:10:16.416Z,21.60
2022-11-29T13:12:55.600Z,18.73
2022-11-29T13:15:36.198Z,18.73
2022-11-29T13:18:26.065Z,19.25
2022-11-29T13:21:01.542Z,19.08
2022-11-29T13:26:39.705Z,18.38
2022-11-29T13:29:12.611Z,19.45
2022-11-29T13:31:39.846Z,18.27
2022-11-29T13:34:07.653Z,19.42
2022-11-29T13:37:09.499Z,20.17
2022-11-29T13:40:01.351Z,19.40
2022-11-29T13:42:59.351Z,19.92
2022-11-29T13:45:26.931Z,19.38
2022-11-29T13:47:57.944Z,20.63
2022-11-29T13:50:39.775Z,19.92
2022-11-29T13:53:22.402Z,19.95
2022-11-29T13:56:00.874Z,19.00
2022-11-29T13:58:28.458Z,19.75
2022-11-29T14:01:01.657Z,19.65
2022-11-29T14:03:30.232Z,20.40
2022-11-29T14:06:12.434Z,20.50
2022-11-29T14:09:17.823Z,19.27
2022-11-29T14:11:42.280Z,21.83
2022-11-29T14:14:29.114Z,18.92
2022-11-29T14:19:34.551Z,20.00
2022-11-29T14:22:02.216Z,19.40
2022-11-29T14:24:40.176Z,21.75
2022-11-29T14:27:06.877Z,35.65
2022-11-29T14:29:54.584Z,23.55
2022-11-29T14:32:51.739Z,22.98
2022-11-29T14:35:24.064Z,20.75
2022-11-29T14:38:16.346Z,19.85
2022-11-29T14:40:47.223Z,18.73
2022-11-29T14:43:30.061Z,20.33
2022-11-29T14:46:29.206Z,18.90
2022-11-29T14:48:56.293Z,19.27
2022-11-29T14:51:25.061Z,19.88
2022-11-29T14:54:13.456Z,20.52
2022-11-29T14:56:43.811Z,19.88
2022-11-29T14:59:41.206Z,20.60
2022-11-29T15:04:52.486Z,19.00
2022-11-29T15:07:27.590Z,19.60
2022-11-29T15:09:58.532Z,20.60
2022-11-29T15:12:29.417Z,21.02
2022-11-29T15:15:06.675Z,20.77
2022-11-29T15:17:48.532Z,19.98
2022-11-29T15:20:35.040Z,20.52
2022-11-29T15:23:06.438Z,20.02
2022-11-29T15:25:34.106Z,20.10
2022-11-29T15:28:03.353Z,20.02
2022-11-29T15:30:37.104Z,21.30
2022-11-29T15:33:06.657Z,20.95
2022-11-29T15:35:35.866Z,19.25
2022-11-29T15:38:02.792Z,20.27
2022-11-29T15:40:35.301Z,21.33
2022-11-29T15:43:02.943Z,19.85
2022-11-29T15:45:33.538Z,21.02
2022-11-29T15:48:30.636Z,21.23
2022-11-29T15:51:28.316Z,21.38
2022-11-29T15:54:15.713Z,21.10
2022-11-29T15:56:54.641Z,20.13
2022-11-29T15:59:21.290Z,21.20
2022-11-29T16:01:51.492Z,20.77
2022-11-29T16:04:21.028Z,21.08
2022-11-29T16:06:49.556Z,22.50
2022-11-29T16:09:20.042Z,19.63
2022-11-29T16:11:48.405Z,20.70
2022-11-29T16:14:21.127Z,20.88
2022-11-29T16:16:52.454Z,21.73
2022-11-29T16:19:30.745Z,21.55
2022-11-29T16:22:14.841Z,21.17
2022-11-29T16:24:52.712Z,20.33
2022-11-29T16:27:21.064Z,20.88
2022-11-29T16:29:48.956Z,21.92
2022-11-29T16:32:26.279Z,21.88
2022-11-29T16:34:53.825Z,23.17
2022-11-29T16:37:26.611Z,23.85
2022-11-29T16:39:58.720Z,23.20
2022-11-29T16:42:29.321Z,22.98
2022-11-29T16:45:20.201Z,23.55
2022-11-29T16:47:59.551Z,22.13
2022-11-29T16:50:28.663Z,21.98
2022-11-29T16:52:57.012Z,20.60
2022-11-29T16:55:24.368Z,23.10
2022-11-29T16:57:52.203Z,22.02
2022-11-29T17:00:34.218Z,22.02
2022-11-29T17:03:00.854Z,21.33
2022-11-29T17:05:27.745Z,22.65
2022-11-29T17:07:55.052Z,21.83
2022-11-29T17:10:25.558Z,22.02
2022-11-29T17:12:55.795Z,19.85
2022-11-29T17:15:22.460Z,22.58
2022-11-29T17:17:49.103Z,23.15
2022-11-29T17:20:15.867Z,22.85
2022-11-29T17:22:42.542Z,21.90
2022-11-29T17:25:10.773Z,21.08
2022-11-29T17:27:37.461Z,20.75
2022-11-29T17:30:06.138Z,21.75
2022-11-29T17:32:35.774Z,21.20
2022-11-29T17:35:02.467Z,20.90
2022-11-29T17:37:30.162Z,21.85
2022-11-29T17:40:00.076Z,20.10
2022-11-29T17:42:30.076Z,20.00
2022-11-29T17:44:56.730Z,20.33
2022-11-29T17:47:23.476Z,21.40
2022-11-29T17:49:50.112Z,22.70
2022-11-29T17:52:16.779Z,25.83
2022-11-29T17:54:43.857Z,24.35
2022-11-29T17:57:10.463Z,22.42
2022-11-29T17:59:37.079Z,25.00
2022-11-29T18:02:04.303Z,22.40
2022-11-29T18:04:31.013Z,21.50
2022-11-29T18:06:57.867Z,26.25
2022-11-29T18:09:24.491Z,28.25
2022-11-29T18:11:51.217Z,26.58
2022-11-29T18:14:22.939Z,25.48
2022-11-29T18:16:50.178Z,25.38
2022-11-29T18:19:19.544Z,24.10
2022-11-29T18:21:46.704Z,24.92
2022-11-29T18:24:13.518Z,24.98
2022-11-29T18:26:41.416Z,24.52
2022-11-29T18:29:09.293Z,25.83
2022-11-29T18:31:38.705Z,22.83
2022-11-29T18:34:09.447Z,23.02
2022-11-29T18:36:39.334Z,23.70
2022-11-29T18:39:09.141Z,23.73
2022-11-29T18:41:36.988Z,21.77
2022-11-29T18:44:07.455Z,20.33
2022-11-29T18:46:37.182Z,21.38
2022-11-29T18:49:06.403Z,22.63
2022-11-29T18:51:37.813Z,24.75
2022-11-29T18:54:05.726Z,24.30
2022-11-29T18:56:34.841Z,20.73
2022-11-29T18:59:05.264Z,20.95
2022-11-29T19:01:35.700Z,20.80
2022-11-29T19:04:02.436Z,21.45
2022-11-29T19:06:39.002Z,21.73
2022-11-29T19:09:09.799Z,21.83
2022-11-29T19:11:36.478Z,22.13
2022-11-29T19:14:05.995Z,21.00
2022-11-29T19:16:34.599Z,22.90
2022-11-29T19:19:01.775Z,25.80
2022-11-29T19:21:31.825Z,24.95
2022-11-29T19:24:01.441Z,24.92
2022-11-29T19:26:30.544Z,25.08
2022-11-29T19:29:00.101Z,23.95
2022-11-29T19:31:28.521Z,22.23
2022-11-29T19:33:56.514Z,21.63
2022-11-29T19:36:24.333Z,20.23
2022-11-29T19:38:53.746Z,19.75
2022-11-29T19:41:21.002Z,20.58
2022-11-29T19:43:48.663Z,20.20
2022-11-29T19:46:19.063Z,21.48
2022-11-29T19:48:46.451Z,21.05
2022-11-29T19:51:17.753Z,22.08
2022-11-29T19:53:45.695Z,20.63
2022-11-29T19:56:16.708Z,21.60
2022-11-29T19:58:44.404Z,21.17
2022-11-29T20:01:14.263Z,21.75
2022-11-29T20:03:41.914Z,22.13
2022-11-29T20:06:09.842Z,22.05
2022-11-29T20:08:37.436Z,22.02
2022-11-29T20:11:10.622Z,20.70
2022-11-29T20:13:38.755Z,20.60
2022-11-29T20:16:09.866Z,19.35
2022-11-29T20:18:39.405Z,19.10
2022-11-29T20:21:10.842Z,19.00
2022-11-29T20:23:38.985Z,19.33
2022-11-29T20:26:08.104Z,18.52
2022-11-29T20:28:35.670Z,18.35
2022-11-29T20:31:14.175Z,18.38
2022-11-29T20:33:42.961Z,18.58
2022-11-29T20:36:32.658Z,17.52
2022-11-29T20:39:34.442Z,17.75
2022-11-29T20:42:36.179Z,17.73
2022-11-29T20:45:06.618Z,18.15
2022-11-29T20:47:50.462Z,17.67
2022-11-29T20:50:23.290Z,16.73
2022-11-29T20:53:03.213Z,18.73
2022-11-29T20:55:30.900Z,18.05
2022-11-29T20:57:57.529Z,17.65
2022-11-29T21:00:24.179Z,17.67
2022-11-29T21:02:50.811Z,16.70
2022-11-29T21:05:17.527Z,18.13
2022-11-29T21:07:45.729Z,17.77
2022-11-29T21:10:13.864Z,17.83
2022-11-29T21:12:40.967Z,16.70
2022-11-29T21:15:10.224Z,18.58
2022-11-29T21:17:37.121Z,17.67
2022-11-29T21:20:04.611Z,18.40
2022-11-29T21:22:46.924Z,17.70
2022-11-29T21:25:25.386Z,18.60
2022-11-29T21:27:54.670Z,18.13
2022-11-29T21:30:24.005Z,19.13
2022-11-29T21:32:51.795Z,17.92
2022-11-29T21:35:18.455Z,19.88
2022-11-29T21:37:45.701Z,20.98
2022-11-29T21:40:15.802Z,19.00
2022-11-29T21:42:45.696Z,19.20
2022-11-29T21:45:15.683Z,19.08
2022-11-29T21:47:44.009Z,19.20
2022-11-29T21:50:12.655Z,19.17
2022-11-29T21:52:39.471Z,18.40
2022-11-29T21:55:06.502Z,19.05
2022-11-29T21:57:33.128Z,18.92
2022-11-29T21:59:59.722Z,19.02
2022-11-29T22:02:26.430Z,20.45
2022-11-29T22:04:53.158Z,18.95
2022-11-29T22:07:19.768Z,19.40
2022-11-29T22:09:46.448Z,19.95
2022-11-29T22:12:32.957Z,19.17
2022-11-29T22:14:59.691Z,19.13
2022-11-29T22:17:26.314Z,19.88
2022-11-29T22:19:52.962Z,19.40
2022-11-29T22:22:19.558Z,18.70
2022-11-29T22:24:46.438Z,19.83
2022-11-29T22:27:13.244Z,19.10
2022-11-29T22:29:39.863Z,22.55
2022-11-29T22:32:06.612Z,23.80
2022-11-29T22:34:33.195Z,21.65
2022-11-29T22:36:59.831Z,22.52
2022-11-29T22:39:26.596Z,22.35
2022-11-29T22:41:55.037Z,23.05
2022-11-29T22:44:23.209Z,23.10
2022-11-29T22:46:50.436Z,23.10
2022-11-29T22:49:17.095Z,23.98
2022-11-29T22:51:43.814Z,22.23
2022-11-29T22:54:11.855Z,22.48
2022-11-29T22:56:40.886Z,22.05
2022-11-29T22:59:08.155Z,21.92
2022-11-29T23:01:37.754Z,21.63
2022-11-29T23:04:07.182Z,21.95
2022-11-29T23:06:35.514Z,21.42
2022-11-29T23:09:06.928Z,20.45
2022-11-29T23:11:33.723Z,20.33
2022-11-29T23:14:00.391Z,21.65
2022-11-29T23:16:29.479Z,21.58
2022-11-29T23:18:58.285Z,20.42
2022-11-29T23:21:35.171Z,20.15
2022-11-29T23:24:02.528Z,19.90
2022-11-29T23:26:36.376Z,21.27
2022-11-29T23:29:04.043Z,19.95
2022-11-29T23:31:30.784Z,19.30
2022-11-29T23:33:57.697Z,20.13
2022-11-29T23:36:24.299Z,21.27
2022-11-29T23:38:51.149Z,20.73
2022-11-29T23:41:18.326Z,22.42
2022-11-29T23:43:44.980Z,22.15
2022-11-29T23:46:15.599Z,20.60
2022-11-29T23:48:43.140Z,21.17
2022-11-29T23:51:10.344Z,20.67
2022-11-29T23:53:37.047Z,19.27
2022-11-29T23:56:06.433Z,20.50
2022-11-29T23:58:34.407Z,21.60
